sensor_id;sensor_type;location;lat;lon;timestamp;temperature;humidity
26262;DHT22;13988;52.446;13.280;2023-06-26T00:00:42;19.00;99.90
26262;DHT22;13988;52.446;13.280;2023-06-26T00:03:08;19.00;99.90
26262;DHT22;13988;52.446;13.280;2023-06-26T00:05:34;19.00;99.90
26262;DHT22;13988;52.446;13.280;2023-06-26T00:08:01;18.90;99.90
26262;DHT22;13988;52.446;13.280;2023-06-26T00:10:27;18.90;99.90
26262;DHT22;13988;52.446;13.280;2023-06-26T00:12:53;18.90;99.90
26262;DHT22;13988;52.446;13.280;2023-06-26T00:15:19;18.80;99.90
26262;DHT22;13988;52.446;13.280;2023-06-26T00:17:48;18.80;99.90
26262;DHT22;13988;52.446;13.280;2023-06-26T00:20:17;18.70;99.90
26262;DHT22;13988;52.446;13.280;2023-06-26T00:22:46;18.80;99.90
26262;DHT22;13988;52.446;13.280;2023-06-26T00:25:12;18.70;99.90
26262;DHT22;13988;52.446;13.280;2023-06-26T00:27:38;18.70;99.90
26262;DHT22;13988;52.446;13.280;2023-06-26T00:30:04;18.70;99.90
26262;DHT22;13988;52.446;13.280;2023-06-26T00:32:30;18.70;99.90
26262;DHT22;13988;52.446;13.280;2023-06-26T00:34:59;18.70;99.90
26262;DHT22;13988;52.446;13.280;2023-06-26T00:37:25;18.60;99.90
26262;DHT22;13988;52.446;13.280;2023-06-26T00:39:51;18.60;99.90
26262;DHT22;13988;52.446;13.280;2023-06-26T00:42:17;18.60;99.90
26262;DHT22;13988;52.446;13.280;2023-06-26T00:44:43;18.60;99.90
26262;DHT22;13988;52.446;13.280;2023-06-26T00:47:10;18.60;99.90
26262;DHT22;13988;52.446;13.280;2023-06-26T00:53:26;18.60;99.90
26262;DHT22;13988;52.446;13.280;2023-06-26T00:55:53;18.60;99.90
26262;DHT22;13988;52.446;13.280;2023-06-26T00:58:19;18.60;99.90
26262;DHT22;13988;52.446;13.280;2023-06-26T01:00:46;18.50;99.90
26262;DHT22;13988;52.446;13.280;2023-06-26T01:06:02;18.50;99.90
26262;DHT22;13988;52.446;13.280;2023-06-26T01:08:29;18.50;99.90
26262;DHT22;13988;52.446;13.280;2023-06-26T01:10:55;18.50;99.90
26262;DHT22;13988;52.446;13.280;2023-06-26T01:13:21;18.40;99.90
26262;DHT22;13988;52.446;13.280;2023-06-26T01:15:48;18.40;99.90
26262;DHT22;13988;52.446;13.280;2023-06-26T01:18:23;18.40;99.90
26262;DHT22;13988;52.446;13.280;2023-06-26T01:20:51;18.40;99.90
26262;DHT22;13988;52.446;13.280;2023-06-26T01:26:20;18.30;99.90
26262;DHT22;13988;52.446;13.280;2023-06-26T01:28:47;18.20;99.90
26262;DHT22;13988;52.446;13.280;2023-06-26T01:31:14;18.20;99.90
26262;DHT22;13988;52.446;13.280;2023-06-26T01:33:41;18.20;99.90
26262;DHT22;13988;52.446;13.280;2023-06-26T01:36:08;18.10;99.90
26262;DHT22;13988;52.446;13.280;2023-06-26T01:38:34;18.20;99.90
26262;DHT22;13988;52.446;13.280;2023-06-26T01:41:04;18.20;99.90
26262;DHT22;13988;52.446;13.280;2023-06-26T01:44:49;18.20;99.90
26262;DHT22;13988;52.446;13.280;2023-06-26T01:47:03;18.20;99.90
26262;DHT22;13988;52.446;13.280;2023-06-26T01:52:42;18.20;99.90
26262;DHT22;13988;52.446;13.280;2023-06-26T01:58:06;18.20;99.90
26262;DHT22;13988;52.446;13.280;2023-06-26T02:00:37;18.20;99.90
26262;DHT22;13988;52.446;13.280;2023-06-26T02:03:06;18.20;99.90
26262;DHT22;13988;52.446;13.280;2023-06-26T02:05:51;18.10;99.90
26262;DHT22;13988;52.446;13.280;2023-06-26T02:08:17;18.00;99.90
26262;DHT22;13988;52.446;13.280;2023-06-26T02:11:03;18.00;99.90
26262;DHT22;13988;52.446;13.280;2023-06-26T02:13:29;17.80;99.90
26262;DHT22;13988;52.446;13.280;2023-06-26T02:16:00;17.90;99.90
26262;DHT22;13988;52.446;13.280;2023-06-26T02:18:34;17.90;99.90
26262;DHT22;13988;52.446;13.280;2023-06-26T02:21:10;17.90;99.90
26262;DHT22;13988;52.446;13.280;2023-06-26T02:23:36;17.90;99.90
26262;DHT22;13988;52.446;13.280;2023-06-26T02:26:05;17.90;99.90
26262;DHT22;13988;52.446;13.280;2023-06-26T02:28:31;17.90;99.90
26262;DHT22;13988;52.446;13.280;2023-06-26T02:31:05;17.80;99.90
26262;DHT22;13988;52.446;13.280;2023-06-26T02:33:31;17.80;99.90
26262;DHT22;13988;52.446;13.280;2023-06-26T02:35:57;17.80;99.90
26262;DHT22;13988;52.446;13.280;2023-06-26T02:38:23;17.80;99.90
26262;DHT22;13988;52.446;13.280;2023-06-26T02:40:49;17.80;99.90
26262;DHT22;13988;52.446;13.280;2023-06-26T02:43:15;17.80;99.90
26262;DHT22;13988;52.446;13.280;2023-06-26T02:45:42;17.70;99.90
26262;DHT22;13988;52.446;13.280;2023-06-26T02:48:08;17.70;99.90
26262;DHT22;13988;52.446;13.280;2023-06-26T02:50:34;17.70;99.90
26262;DHT22;13988;52.446;13.280;2023-06-26T02:53:03;17.80;99.90
26262;DHT22;13988;52.446;13.280;2023-06-26T02:55:31;17.70;99.90
26262;DHT22;13988;52.446;13.280;2023-06-26T02:58:00;17.70;99.90
26262;DHT22;13988;52.446;13.280;2023-06-26T03:00:26;17.70;99.90
26262;DHT22;13988;52.446;13.280;2023-06-26T03:02:52;17.70;99.90
26262;DHT22;13988;52.446;13.280;2023-06-26T03:05:20;17.70;99.90
26262;DHT22;13988;52.446;13.280;2023-06-26T03:07:53;17.70;99.90
26262;DHT22;13988;52.446;13.280;2023-06-26T03:10:19;17.80;99.90
26262;DHT22;13988;52.446;13.280;2023-06-26T03:12:45;17.80;99.90
26262;DHT22;13988;52.446;13.280;2023-06-26T03:15:11;17.80;99.90
26262;DHT22;13988;52.446;13.280;2023-06-26T03:17:37;17.80;99.90
26262;DHT22;13988;52.446;13.280;2023-06-26T03:20:03;17.80;99.90
26262;DHT22;13988;52.446;13.280;2023-06-26T03:22:35;17.90;99.90
26262;DHT22;13988;52.446;13.280;2023-06-26T03:25:02;17.90;99.90
26262;DHT22;13988;52.446;13.280;2023-06-26T03:27:34;18.00;99.90
26262;DHT22;13988;52.446;13.280;2023-06-26T03:30:23;18.00;99.90
26262;DHT22;13988;52.446;13.280;2023-06-26T03:32:49;18.20;99.90
26262;DHT22;13988;52.446;13.280;2023-06-26T03:35:15;18.20;99.90
26262;DHT22;13988;52.446;13.280;2023-06-26T03:37:44;18.30;99.90
26262;DHT22;13988;52.446;13.280;2023-06-26T03:40:19;18.30;99.90
26262;DHT22;13988;52.446;13.280;2023-06-26T03:42:57;18.40;99.90
26262;DHT22;13988;52.446;13.280;2023-06-26T03:45:26;18.40;99.90
26262;DHT22;13988;52.446;13.280;2023-06-26T03:47:54;18.50;99.90
26262;DHT22;13988;52.446;13.280;2023-06-26T03:50:31;18.50;99.90
26262;DHT22;13988;52.446;13.280;2023-06-26T03:52:56;18.60;99.90
26262;DHT22;13988;52.446;13.280;2023-06-26T03:55:27;18.60;99.90
26262;DHT22;13988;52.446;13.280;2023-06-26T03:58:07;18.70;99.90
26262;DHT22;13988;52.446;13.280;2023-06-26T04:00:33;18.70;99.90
26262;DHT22;13988;52.446;13.280;2023-06-26T04:03:02;18.80;99.90
26262;DHT22;13988;52.446;13.280;2023-06-26T04:05:30;18.80;99.90
26262;DHT22;13988;52.446;13.280;2023-06-26T04:07:57;18.90;99.90
26262;DHT22;13988;52.446;13.280;2023-06-26T04:10:25;18.90;99.90
26262;DHT22;13988;52.446;13.280;2023-06-26T04:12:51;19.00;99.90
26262;DHT22;13988;52.446;13.280;2023-06-26T04:15:58;19.00;99.90
26262;DHT22;13988;52.446;13.280;2023-06-26T04:18:23;19.10;99.90
26262;DHT22;13988;52.446;13.280;2023-06-26T04:21:12;19.10;99.90
26262;DHT22;13988;52.446;13.280;2023-06-26T04:23:39;19.20;99.90
26262;DHT22;13988;52.446;13.280;2023-06-26T04:26:14;19.20;99.90
26262;DHT22;13988;52.446;13.280;2023-06-26T04:28:40;19.20;99.90
26262;DHT22;13988;52.446;13.280;2023-06-26T04:31:07;19.30;99.90
26262;DHT22;13988;52.446;13.280;2023-06-26T04:33:34;19.30;99.90
26262;DHT22;13988;52.446;13.280;2023-06-26T04:36:05;19.30;99.90
26262;DHT22;13988;52.446;13.280;2023-06-26T04:38:32;19.30;99.90
26262;DHT22;13988;52.446;13.280;2023-06-26T04:40:59;19.30;99.90
26262;DHT22;13988;52.446;13.280;2023-06-26T04:43:31;19.30;99.90
26262;DHT22;13988;52.446;13.280;2023-06-26T04:46:06;19.30;99.90
26262;DHT22;13988;52.446;13.280;2023-06-26T04:48:32;19.30;99.90
26262;DHT22;13988;52.446;13.280;2023-06-26T04:50:58;19.40;99.90
26262;DHT22;13988;52.446;13.280;2023-06-26T04:53:27;19.50;99.90
26262;DHT22;13988;52.446;13.280;2023-06-26T04:55:53;19.60;99.90
26262;DHT22;13988;52.446;13.280;2023-06-26T04:58:19;19.80;99.90
26262;DHT22;13988;52.446;13.280;2023-06-26T05:00:46;20.00;99.90
26262;DHT22;13988;52.446;13.280;2023-06-26T05:03:16;20.10;99.90
26262;DHT22;13988;52.446;13.280;2023-06-26T05:05:42;20.20;99.90
26262;DHT22;13988;52.446;13.280;2023-06-26T05:08:15;20.20;99.90
26262;DHT22;13988;52.446;13.280;2023-06-26T05:10:41;20.20;99.90
26262;DHT22;13988;52.446;13.280;2023-06-26T05:13:10;20.20;99.90
26262;DHT22;13988;52.446;13.280;2023-06-26T05:15:36;20.10;99.90
26262;DHT22;13988;52.446;13.280;2023-06-26T05:18:02;20.20;99.90
26262;DHT22;13988;52.446;13.280;2023-06-26T05:20:28;20.20;99.90
26262;DHT22;13988;52.446;13.280;2023-06-26T05:22:54;20.10;99.90
26262;DHT22;13988;52.446;13.280;2023-06-26T05:25:20;20.10;99.90
26262;DHT22;13988;52.446;13.280;2023-06-26T05:27:48;20.00;99.90
26262;DHT22;13988;52.446;13.280;2023-06-26T05:30:25;20.00;99.90
26262;DHT22;13988;52.446;13.280;2023-06-26T05:32:54;20.10;99.90
26262;DHT22;13988;52.446;13.280;2023-06-26T05:35:21;20.00;99.90
26262;DHT22;13988;52.446;13.280;2023-06-26T05:37:54;20.10;99.90
26262;DHT22;13988;52.446;13.280;2023-06-26T05:40:28;20.10;99.90
26262;DHT22;13988;52.446;13.280;2023-06-26T05:42:54;20.20;99.90
26262;DHT22;13988;52.446;13.280;2023-06-26T05:45:20;20.30;99.90
26262;DHT22;13988;52.446;13.280;2023-06-26T05:47:46;20.50;99.90
26262;DHT22;13988;52.446;13.280;2023-06-26T05:50:13;20.70;99.90
26262;DHT22;13988;52.446;13.280;2023-06-26T05:52:40;20.70;99.90
26262;DHT22;13988;52.446;13.280;2023-06-26T05:55:06;20.70;99.90
26262;DHT22;13988;52.446;13.280;2023-06-26T05:57:32;20.80;99.90
26262;DHT22;13988;52.446;13.280;2023-06-26T05:59:59;20.90;99.90
26262;DHT22;13988;52.446;13.280;2023-06-26T06:02:25;20.90;99.90
26262;DHT22;13988;52.446;13.280;2023-06-26T06:05:00;21.00;99.90
26262;DHT22;13988;52.446;13.280;2023-06-26T06:07:25;21.20;99.90
26262;DHT22;13988;52.446;13.280;2023-06-26T06:09:51;21.50;99.90
26262;DHT22;13988;52.446;13.280;2023-06-26T06:12:17;22.20;99.90
26262;DHT22;13988;52.446;13.280;2023-06-26T06:14:43;23.00;99.90
26262;DHT22;13988;52.446;13.280;2023-06-26T06:17:18;23.70;99.90
26262;DHT22;13988;52.446;13.280;2023-06-26T06:20:04;24.70;99.90
26262;DHT22;13988;52.446;13.280;2023-06-26T06:22:30;25.30;99.90
26262;DHT22;13988;52.446;13.280;2023-06-26T06:25:05;26.20;99.90
26262;DHT22;13988;52.446;13.280;2023-06-26T06:27:31;27.10;99.90
26262;DHT22;13988;52.446;13.280;2023-06-26T06:29:56;27.30;99.90
26262;DHT22;13988;52.446;13.280;2023-06-26T06:32:25;28.00;99.90
26262;DHT22;13988;52.446;13.280;2023-06-26T06:34:51;28.50;99.90
26262;DHT22;13988;52.446;13.280;2023-06-26T06:37:16;29.20;99.90
26262;DHT22;13988;52.446;13.280;2023-06-26T06:39:48;29.10;99.90
26262;DHT22;13988;52.446;13.280;2023-06-26T06:42:14;29.90;99.90
26262;DHT22;13988;52.446;13.280;2023-06-26T06:44:40;30.10;99.90
26262;DHT22;13988;52.446;13.280;2023-06-26T06:47:06;29.90;99.90
26262;DHT22;13988;52.446;13.280;2023-06-26T06:49:32;29.80;99.90
26262;DHT22;13988;52.446;13.280;2023-06-26T06:51:58;29.40;99.90
26262;DHT22;13988;52.446;13.280;2023-06-26T06:54:26;30.30;99.90
26262;DHT22;13988;52.446;13.280;2023-06-26T06:56:53;29.90;99.90
26262;DHT22;13988;52.446;13.280;2023-06-26T06:59:19;30.20;99.90
26262;DHT22;13988;52.446;13.280;2023-06-26T07:01:44;30.10;99.90
26262;DHT22;13988;52.446;13.280;2023-06-26T07:04:10;31.00;99.90
26262;DHT22;13988;52.446;13.280;2023-06-26T07:06:36;30.90;99.90
26262;DHT22;13988;52.446;13.280;2023-06-26T07:09:02;31.30;99.90
26262;DHT22;13988;52.446;13.280;2023-06-26T07:11:28;30.20;99.90
26262;DHT22;13988;52.446;13.280;2023-06-26T07:13:55;30.70;99.90
26262;DHT22;13988;52.446;13.280;2023-06-26T07:16:21;31.30;99.90
26262;DHT22;13988;52.446;13.280;2023-06-26T07:18:47;31.80;99.90
26262;DHT22;13988;52.446;13.280;2023-06-26T07:21:14;31.40;99.90
26262;DHT22;13988;52.446;13.280;2023-06-26T07:23:40;31.00;99.90
26262;DHT22;13988;52.446;13.280;2023-06-26T07:26:06;31.30;99.90
26262;DHT22;13988;52.446;13.280;2023-06-26T07:28:32;29.90;99.90
26262;DHT22;13988;52.446;13.280;2023-06-26T07:30:58;31.00;99.90
26262;DHT22;13988;52.446;13.280;2023-06-26T07:33:23;32.00;99.90
26262;DHT22;13988;52.446;13.280;2023-06-26T07:35:49;32.10;99.90
26262;DHT22;13988;52.446;13.280;2023-06-26T07:38:27;32.70;97.50
26262;DHT22;13988;52.446;13.280;2023-06-26T07:40:53;31.10;94.70
26262;DHT22;13988;52.446;13.280;2023-06-26T07:43:19;31.60;99.10
26262;DHT22;13988;52.446;13.280;2023-06-26T07:45:45;32.30;96.90
26262;DHT22;13988;52.446;13.280;2023-06-26T07:48:10;32.50;95.20
26262;DHT22;13988;52.446;13.280;2023-06-26T07:50:36;32.50;94.30
26262;DHT22;13988;52.446;13.280;2023-06-26T07:55:59;32.40;97.60
26262;DHT22;13988;52.446;13.280;2023-06-26T07:58:25;32.10;93.30
26262;DHT22;13988;52.446;13.280;2023-06-26T08:00:51;31.70;94.20
26262;DHT22;13988;52.446;13.280;2023-06-26T08:03:17;32.20;93.40
26262;DHT22;13988;52.446;13.280;2023-06-26T08:05:52;32.40;93.10
26262;DHT22;13988;52.446;13.280;2023-06-26T08:08:18;32.80;92.40
26262;DHT22;13988;52.446;13.280;2023-06-26T08:10:44;32.90;94.30
26262;DHT22;13988;52.446;13.280;2023-06-26T08:13:10;33.00;93.40
26262;DHT22;13988;52.446;13.280;2023-06-26T08:15:36;32.70;92.70
26262;DHT22;13988;52.446;13.280;2023-06-26T08:18:04;31.50;92.80
26262;DHT22;13988;52.446;13.280;2023-06-26T08:20:30;31.40;95.60
26262;DHT22;13988;52.446;13.280;2023-06-26T08:22:56;31.70;96.20
26262;DHT22;13988;52.446;13.280;2023-06-26T08:25:22;31.90;95.20
26262;DHT22;13988;52.446;13.280;2023-06-26T08:27:48;32.20;94.10
26262;DHT22;13988;52.446;13.280;2023-06-26T08:30:41;32.20;93.40
26262;DHT22;13988;52.446;13.280;2023-06-26T08:33:07;32.60;93.50
26262;DHT22;13988;52.446;13.280;2023-06-26T08:35:49;30.90;93.60
26262;DHT22;13988;52.446;13.280;2023-06-26T08:38:15;30.90;95.90
26262;DHT22;13988;52.446;13.280;2023-06-26T08:40:50;30.50;96.80
26262;DHT22;13988;52.446;13.280;2023-06-26T08:43:16;30.00;97.40
26262;DHT22;13988;52.446;13.280;2023-06-26T08:45:42;29.80;96.40
26262;DHT22;13988;52.446;13.280;2023-06-26T08:48:08;30.00;96.20
26262;DHT22;13988;52.446;13.280;2023-06-26T08:50:35;29.90;99.00
26262;DHT22;13988;52.446;13.280;2023-06-26T08:56:20;29.40;97.50
26262;DHT22;13988;52.446;13.280;2023-06-26T08:58:48;28.80;97.00
26262;DHT22;13988;52.446;13.280;2023-06-26T09:01:14;29.20;98.60
26262;DHT22;13988;52.446;13.280;2023-06-26T09:03:40;28.80;98.50
26262;DHT22;13988;52.446;13.280;2023-06-26T09:06:13;29.00;98.10
26262;DHT22;13988;52.446;13.280;2023-06-26T09:08:38;28.80;99.10
26262;DHT22;13988;52.446;13.280;2023-06-26T09:11:04;28.90;98.20
26262;DHT22;13988;52.446;13.280;2023-06-26T09:13:32;29.10;99.90
26262;DHT22;13988;52.446;13.280;2023-06-26T09:15:58;28.40;96.60
26262;DHT22;13988;52.446;13.280;2023-06-26T09:18:24;28.50;97.50
26262;DHT22;13988;52.446;13.280;2023-06-26T09:20:50;28.60;97.10
26262;DHT22;13988;52.446;13.280;2023-06-26T09:23:16;28.60;98.40
26262;DHT22;13988;52.446;13.280;2023-06-26T09:26:28;28.70;99.90
26262;DHT22;13988;52.446;13.280;2023-06-26T09:28:59;28.90;97.80
26262;DHT22;13988;52.446;13.280;2023-06-26T09:31:25;28.80;94.60
26262;DHT22;13988;52.446;13.280;2023-06-26T09:33:58;28.60;98.20
26262;DHT22;13988;52.446;13.280;2023-06-26T09:36:28;29.20;94.70
26262;DHT22;13988;52.446;13.280;2023-06-26T09:38:54;29.00;96.20
26262;DHT22;13988;52.446;13.280;2023-06-26T09:41:31;28.90;97.00
26262;DHT22;13988;52.446;13.280;2023-06-26T09:44:14;28.80;97.60
26262;DHT22;13988;52.446;13.280;2023-06-26T09:46:42;28.90;97.10
26262;DHT22;13988;52.446;13.280;2023-06-26T09:49:36;29.00;96.80
26262;DHT22;13988;52.446;13.280;2023-06-26T09:52:06;28.90;95.80
26262;DHT22;13988;52.446;13.280;2023-06-26T09:54:32;28.60;96.60
26262;DHT22;13988;52.446;13.280;2023-06-26T09:57:17;28.80;99.40
26262;DHT22;13988;52.446;13.280;2023-06-26T09:59:44;29.30;95.90
26262;DHT22;13988;52.446;13.280;2023-06-26T10:02:13;29.10;95.30
26262;DHT22;13988;52.446;13.280;2023-06-26T10:04:39;29.10;96.00
26262;DHT22;13988;52.446;13.280;2023-06-26T10:07:11;28.90;96.00
26262;DHT22;13988;52.446;13.280;2023-06-26T10:09:41;29.10;95.30
26262;DHT22;13988;52.446;13.280;2023-06-26T10:12:30;29.20;96.60
26262;DHT22;13988;52.446;13.280;2023-06-26T10:14:57;29.10;97.60
26262;DHT22;13988;52.446;13.280;2023-06-26T10:17:43;29.30;96.20
26262;DHT22;13988;52.446;13.280;2023-06-26T10:20:09;29.70;94.00
26262;DHT22;13988;52.446;13.280;2023-06-26T10:22:45;29.70;95.40
26262;DHT22;13988;52.446;13.280;2023-06-26T10:25:18;29.70;96.00
26262;DHT22;13988;52.446;13.280;2023-06-26T10:27:49;29.60;94.40
26262;DHT22;13988;52.446;13.280;2023-06-26T10:30:20;29.60;95.80
26262;DHT22;13988;52.446;13.280;2023-06-26T10:32:50;29.80;94.50
26262;DHT22;13988;52.446;13.280;2023-06-26T10:35:16;29.70;96.10
26262;DHT22;13988;52.446;13.280;2023-06-26T10:37:52;29.90;94.70
26262;DHT22;13988;52.446;13.280;2023-06-26T10:40:39;29.60;90.30
26262;DHT22;13988;52.446;13.280;2023-06-26T10:43:06;29.30;88.00
26262;DHT22;13988;52.446;13.280;2023-06-26T10:48:21;29.60;92.40
26262;DHT22;13988;52.446;13.280;2023-06-26T10:50:48;29.90;88.80
26262;DHT22;13988;52.446;13.280;2023-06-26T10:59:17;30.60;91.10
26262;DHT22;13988;52.446;13.280;2023-06-26T11:01:58;30.70;89.10
26262;DHT22;13988;52.446;13.280;2023-06-26T11:07:21;30.90;86.90
26262;DHT22;13988;52.446;13.280;2023-06-26T11:12:43;31.50;82.60
26262;DHT22;13988;52.446;13.280;2023-06-26T11:15:13;31.50;80.20
26262;DHT22;13988;52.446;13.280;2023-06-26T11:17:41;31.20;86.00
26262;DHT22;13988;52.446;13.280;2023-06-26T11:20:09;31.40;86.10
26262;DHT22;13988;52.446;13.280;2023-06-26T11:22:40;31.60;83.10
26262;DHT22;13988;52.446;13.280;2023-06-26T11:25:07;32.20;81.10
26262;DHT22;13988;52.446;13.280;2023-06-26T11:27:40;32.50;78.50
26262;DHT22;13988;52.446;13.280;2023-06-26T11:30:08;32.50;77.70
26262;DHT22;13988;52.446;13.280;2023-06-26T11:32:35;32.40;80.00
26262;DHT22;13988;52.446;13.280;2023-06-26T11:35:01;32.90;77.70
26262;DHT22;13988;52.446;13.280;2023-06-26T11:37:30;32.90;74.10
26262;DHT22;13988;52.446;13.280;2023-06-26T11:40:32;32.80;71.40
26262;DHT22;13988;52.446;13.280;2023-06-26T11:42:59;32.80;71.20
26262;DHT22;13988;52.446;13.280;2023-06-26T11:45:34;32.80;77.30
26262;DHT22;13988;52.446;13.280;2023-06-26T11:48:00;33.10;72.20
26262;DHT22;13988;52.446;13.280;2023-06-26T11:50:27;33.40;68.50
26262;DHT22;13988;52.446;13.280;2023-06-26T11:52:57;33.50;74.20
26262;DHT22;13988;52.446;13.280;2023-06-26T11:55:24;33.50;74.20
26262;DHT22;13988;52.446;13.280;2023-06-26T11:57:52;33.40;66.90
26262;DHT22;13988;52.446;13.280;2023-06-26T12:00:28;33.10;71.10
26262;DHT22;13988;52.446;13.280;2023-06-26T12:02:53;33.20;69.00
26262;DHT22;13988;52.446;13.280;2023-06-26T12:05:20;33.50;67.90
26262;DHT22;13988;52.446;13.280;2023-06-26T12:07:47;33.40;67.00
26262;DHT22;13988;52.446;13.280;2023-06-26T12:10:14;33.30;70.50
26262;DHT22;13988;52.446;13.280;2023-06-26T12:12:41;33.20;69.20
26262;DHT22;13988;52.446;13.280;2023-06-26T12:15:08;33.60;72.10
26262;DHT22;13988;52.446;13.280;2023-06-26T12:17:41;32.50;69.30
26262;DHT22;13988;52.446;13.280;2023-06-26T12:20:27;32.50;68.70
26262;DHT22;13988;52.446;13.280;2023-06-26T12:22:57;32.80;71.90
26262;DHT22;13988;52.446;13.280;2023-06-26T12:25:24;32.00;71.60
26262;DHT22;13988;52.446;13.280;2023-06-26T12:27:50;32.00;71.90
26262;DHT22;13988;52.446;13.280;2023-06-26T12:30:31;32.50;72.10
26262;DHT22;13988;52.446;13.280;2023-06-26T12:32:57;33.20;76.40
26262;DHT22;13988;52.446;13.280;2023-06-26T12:35:23;33.80;70.50
26262;DHT22;13988;52.446;13.280;2023-06-26T12:37:50;33.50;68.90
26262;DHT22;13988;52.446;13.280;2023-06-26T12:43:02;33.50;67.80
26262;DHT22;13988;52.446;13.280;2023-06-26T12:45:37;32.90;71.80
26262;DHT22;13988;52.446;13.280;2023-06-26T12:48:12;33.00;71.40
26262;DHT22;13988;52.446;13.280;2023-06-26T12:50:43;32.80;78.40
26262;DHT22;13988;52.446;13.280;2023-06-26T12:53:10;33.60;72.70
26262;DHT22;13988;52.446;13.280;2023-06-26T12:55:51;33.90;66.80
26262;DHT22;13988;52.446;13.280;2023-06-26T12:58:17;32.90;67.60
26262;DHT22;13988;52.446;13.280;2023-06-26T13:00:43;32.60;70.10
26262;DHT22;13988;52.446;13.280;2023-06-26T13:03:15;32.60;71.10
26262;DHT22;13988;52.446;13.280;2023-06-26T13:05:59;32.50;74.10
26262;DHT22;13988;52.446;13.280;2023-06-26T13:08:25;32.20;73.40
26262;DHT22;13988;52.446;13.280;2023-06-26T13:10:51;31.90;77.00
26262;DHT22;13988;52.446;13.280;2023-06-26T13:13:16;31.80;75.40
26262;DHT22;13988;52.446;13.280;2023-06-26T13:15:42;31.50;79.00
26262;DHT22;13988;52.446;13.280;2023-06-26T13:18:08;31.40;74.50
26262;DHT22;13988;52.446;13.280;2023-06-26T13:20:37;31.30;72.40
26262;DHT22;13988;52.446;13.280;2023-06-26T13:23:03;31.00;72.90
26262;DHT22;13988;52.446;13.280;2023-06-26T13:25:29;30.90;78.80
26262;DHT22;13988;52.446;13.280;2023-06-26T13:27:55;30.80;76.60
26262;DHT22;13988;52.446;13.280;2023-06-26T13:30:21;30.80;77.60
26262;DHT22;13988;52.446;13.280;2023-06-26T13:32:47;30.90;75.70
26262;DHT22;13988;52.446;13.280;2023-06-26T13:35:21;31.10;77.10
26262;DHT22;13988;52.446;13.280;2023-06-26T13:37:47;31.20;81.40
26262;DHT22;13988;52.446;13.280;2023-06-26T13:40:18;31.50;82.00
26262;DHT22;13988;52.446;13.280;2023-06-26T13:42:44;31.90;81.20
26262;DHT22;13988;52.446;13.280;2023-06-26T13:45:10;32.70;71.80
26262;DHT22;13988;52.446;13.280;2023-06-26T13:47:37;33.00;74.30
26262;DHT22;13988;52.446;13.280;2023-06-26T13:50:07;32.50;71.80
26262;DHT22;13988;52.446;13.280;2023-06-26T13:52:33;32.10;71.20
26262;DHT22;13988;52.446;13.280;2023-06-26T13:54:59;32.50;72.20
26262;DHT22;13988;52.446;13.280;2023-06-26T13:57:25;32.70;73.30
26262;DHT22;13988;52.446;13.280;2023-06-26T13:59:59;32.40;76.00
26262;DHT22;13988;52.446;13.280;2023-06-26T14:02:46;32.00;74.00
26262;DHT22;13988;52.446;13.280;2023-06-26T14:05:15;31.20;72.30
26262;DHT22;13988;52.446;13.280;2023-06-26T14:07:41;30.70;74.70
26262;DHT22;13988;52.446;13.280;2023-06-26T14:10:09;30.50;78.00
26262;DHT22;13988;52.446;13.280;2023-06-26T14:12:35;30.20;74.60
26262;DHT22;13988;52.446;13.280;2023-06-26T14:15:01;30.10;76.60
26262;DHT22;13988;52.446;13.280;2023-06-26T14:20:50;27.70;94.40
26262;DHT22;13988;52.446;13.280;2023-06-26T14:23:28;21.60;99.90
26262;DHT22;13988;52.446;13.280;2023-06-26T14:25:54;20.60;99.90
26262;DHT22;13988;52.446;13.280;2023-06-26T14:28:20;20.50;99.90
26262;DHT22;13988;52.446;13.280;2023-06-26T14:30:45;20.70;99.90
26262;DHT22;13988;52.446;13.280;2023-06-26T14:33:11;20.80;99.90
26262;DHT22;13988;52.446;13.280;2023-06-26T14:36:09;20.90;99.90
26262;DHT22;13988;52.446;13.280;2023-06-26T14:38:35;20.70;99.90
26262;DHT22;13988;52.446;13.280;2023-06-26T14:41:03;20.70;99.90
26262;DHT22;13988;52.446;13.280;2023-06-26T14:43:32;20.60;99.90
26262;DHT22;13988;52.446;13.280;2023-06-26T14:45:58;20.70;99.90
26262;DHT22;13988;52.446;13.280;2023-06-26T14:48:24;20.60;99.90
26262;DHT22;13988;52.446;13.280;2023-06-26T14:50:59;20.50;99.90
26262;DHT22;13988;52.446;13.280;2023-06-26T14:53:25;20.40;99.90
26262;DHT22;13988;52.446;13.280;2023-06-26T14:55:51;20.50;99.90
26262;DHT22;13988;52.446;13.280;2023-06-26T14:58:17;20.30;99.90
26262;DHT22;13988;52.446;13.280;2023-06-26T15:00:59;20.40;99.90
26262;DHT22;13988;52.446;13.280;2023-06-26T15:03:28;20.30;99.90
26262;DHT22;13988;52.446;13.280;2023-06-26T15:06:03;20.30;99.90
26262;DHT22;13988;52.446;13.280;2023-06-26T15:08:28;20.30;99.90
26262;DHT22;13988;52.446;13.280;2023-06-26T15:10:54;20.30;99.90
26262;DHT22;13988;52.446;13.280;2023-06-26T15:13:20;20.10;99.90
26262;DHT22;13988;52.446;13.280;2023-06-26T15:15:46;19.90;99.90
26262;DHT22;13988;52.446;13.280;2023-06-26T15:18:12;19.90;99.90
26262;DHT22;13988;52.446;13.280;2023-06-26T15:20:40;20.00;99.90
26262;DHT22;13988;52.446;13.280;2023-06-26T15:23:06;20.00;99.90
26262;DHT22;13988;52.446;13.280;2023-06-26T15:25:32;20.00;99.90
26262;DHT22;13988;52.446;13.280;2023-06-26T15:28:03;20.00;99.90
26262;DHT22;13988;52.446;13.280;2023-06-26T15:33:08;19.50;99.90
26262;DHT22;13988;52.446;13.280;2023-06-26T15:35:34;19.60;99.90
26262;DHT22;13988;52.446;13.280;2023-06-26T15:38:03;19.70;99.90
26262;DHT22;13988;52.446;13.280;2023-06-26T15:40:29;19.80;99.90
26262;DHT22;13988;52.446;13.280;2023-06-26T15:42:54;20.00;99.90
26262;DHT22;13988;52.446;13.280;2023-06-26T15:45:21;20.00;99.90
26262;DHT22;13988;52.446;13.280;2023-06-26T15:48:17;20.00;99.90
26262;DHT22;13988;52.446;13.280;2023-06-26T15:50:45;20.20;99.90
26262;DHT22;13988;52.446;13.280;2023-06-26T15:53:16;20.20;99.90
26262;DHT22;13988;52.446;13.280;2023-06-26T15:55:43;20.10;99.90
26262;DHT22;13988;52.446;13.280;2023-06-26T15:58:09;20.00;99.90
26262;DHT22;13988;52.446;13.280;2023-06-26T16:00:37;20.30;99.90
26262;DHT22;13988;52.446;13.280;2023-06-26T16:03:03;20.50;99.90
26262;DHT22;13988;52.446;13.280;2023-06-26T16:05:29;20.60;99.90
26262;DHT22;13988;52.446;13.280;2023-06-26T16:07:55;20.70;99.90
26262;DHT22;13988;52.446;13.280;2023-06-26T16:10:20;20.70;99.90
26262;DHT22;13988;52.446;13.280;2023-06-26T16:12:46;20.80;99.90